TimeMST,TemperatureF,Dew PointF,Humidity,Sea Level PressureIn,VisibilityMPH,Wind Direction,Wind SpeedMPH,Gust SpeedMPH,PrecipitationIn,Events,Conditions,WindDirDegrees,DateUTC
12:00 AM,47.1,33.1,58,-9999,-9999.0,West,24.2,-,N/A,,Unknown,270,2013-03-02 07:00:00
1:00 AM,47.7,33.3,57,-9999,-9999.0,West,21.9,-,N/A,,Unknown,260,2013-03-02 08:00:00
2:00 AM,46.0,33.6,62,-9999,-9999.0,WSW,21.9,-,N/A,,Unknown,250,2013-03-02 09:00:00
3:00 AM,46.6,33.8,61,-9999,-9999.0,WSW,23.0,-,N/A,,Unknown,250,2013-03-02 10:00:00
4:00 AM,45.9,33.1,61,-9999,-9999.0,SW,15.0,-,N/A,,Unknown,230,2013-03-02 11:00:00
5:00 AM,44.8,31.8,60,-9999,-9999.0,WSW,21.9,-,N/A,,Unknown,240,2013-03-02 12:00:00
6:00 AM,45.7,31.5,58,-9999,-9999.0,WSW,19.6,-,N/A,,Unknown,250,2013-03-02 13:00:00
7:00 AM,44.4,30.7,59,-9999,-9999.0,WSW,13.8,-,N/A,,Unknown,250,2013-03-02 14:00:00
8:00 AM,47.5,30.7,52,-9999,-9999.0,WSW,23.0,-,N/A,,Unknown,250,2013-03-02 15:00:00
9:00 AM,47.8,30.4,51,-9999,-9999.0,SSW,10.4,-,N/A,,Unknown,210,2013-03-02 16:00:00
10:00 AM,49.5,31.3,50,-9999,-9999.0,WSW,13.8,-,N/A,,Unknown,240,2013-03-02 17:00:00
11:00 AM,52,31,32,,,SW,16.1,,,,,230,2013-03-02 18:00:00
11:00 AM,51.8,31.1,45,-9999,-9999.0,SW,16.1,-,N/A,,Unknown,230,2013-03-02 18:00:00
12:00 PM,54.0,29.7,39,-9999,-9999.0,WSW,13.8,-,N/A,,Unknown,240,2013-03-02 19:00:00
1:00 PM,56.3,26.6,32,-9999,-9999.0,WSW,21.9,-,N/A,,Unknown,250,2013-03-02 20:00:00
2:00 PM,57.6,25.2,29,-9999,-9999.0,WSW,23.0,-,N/A,,Unknown,250,2013-03-02 21:00:00
3:00 PM,55.9,24.8,30,-9999,-9999.0,WSW,23.0,-,N/A,,Unknown,250,2013-03-02 22:00:00
4:00 PM,54.5,24.6,31,-9999,-9999.0,WSW,24.2,-,N/A,,Unknown,250,2013-03-02 23:00:00
5:00 PM,52,24,22,,,WSW,23.0,,,,,250,2013-03-03 00:00:00
5:00 PM,52.3,24.4,34,-9999,-9999.0,WSW,23.0,-,N/A,,Unknown,250,2013-03-03 00:00:00
6:00 PM,49.1,24.8,39,-9999,-9999.0,WSW,19.6,-,N/A,,Unknown,250,2013-03-03 01:00:00
7:00 PM,42.1,25.5,52,-9999,-9999.0,WSW,11.5,-,N/A,,Unknown,250,2013-03-03 02:00:00
8:00 PM,46.4,30.2,53,-9999,-9999.0,WSW,23.0,-,N/A,,Unknown,240,2013-03-03 03:00:00
9:00 PM,44.2,31.6,61,-9999,-9999.0,WSW,19.6,-,N/A,,Unknown,240,2013-03-03 04:00:00
10:00 PM,41.7,32.0,68,-9999,-9999.0,SW,11.5,-,N/A,,Unknown,230,2013-03-03 05:00:00
11:00 PM,37,30,68,,,SW,12.7,,,,,220,2013-03-03 06:00:00
11:00 PM,36.7,30.2,77,-9999,-9999.0,SW,12.7,-,N/A,,Unknown,220,2013-03-03 06:00:00